Hewlett Bay, New York
Current Conditions -  °F | °C
As of 2:40 AM on Wednesday 22 Oct 2014 (Local Time) from KJFK Reporting Station
Thunderstorm Thunderstorm  
Wind Chill: 57°   Ceiling: 7500
Heat Index: 57°   Visibility: 7mi
Dew Point: 55°   Wind: 13mph
Humidity: 94%   Direction: 50°NE
Pressure: 29.88"   Gusts: NA
Location:  40.637°N, 73.6912°W
Report Text: KJFK 220640Z 05011KT 7SM -TSRA FEW007 SCT042CB OVC075 14/13 A2988 RMK AO2 TSB39RAB0552 FRQ LTGICCA E-SE TS E-SE MOV NW P0004 $
Loading
Personal Weather Stations






























Interactive Weather Map
Tropical Storm Tracking
New forecast layout! Learn more

10-Day Weather Forecast

Advertisements
Track Severe Weather on mobile